METAR Data
IDs: Format: Raw Decoded Include TAF

Data at: 2018 UTC 19 May 2019

PASO 191953Z AUTO VRB03KT 10SM SCT046 OVC060 11/04 A2965 RMK AO2 RAE47 SLP040 P0000 T01110039 TSNO
PASO 191853Z AUTO 00000KT 10SM -RA OVC050 10/07 A2965 RMK AO2 RAE01B30 SLP039 P0001 T01000072 TSNO
PASO 191753Z AUTO VRB03KT 10SM -RA OVC055 09/07 A2964 RMK AO2 RAE04B48 SLP038 P0000 60003 T00940072 10094 20056 58007 TSNO
PASO 191710Z AUTO 00000KT 10SM FEW004 BKN047 OVC080 09/07 A2965 RMK AO2 RAE04 P0000 T00890072 TSNO
PASO 191653Z AUTO 00000KT 8SM -RA BKN049 OVC060 08/07 A2966 RMK AO2 SLP044 P0002 T00830067 TSNO
PASO 191553Z AUTO 00000KT 10SM -RA FEW047 BKN055 OVC075 08/06 A2966 RMK AO2 RAE04B25 SLP042 P0000 T00780061 TSNO
PASO 191453Z AUTO 00000KT 9SM -RA BKN055 BKN075 07/06 A2966 RMK AO2 RAB50 SLP045 P0000 60001 T00670056 58010 TSNO
PASO 191353Z AUTO 00000KT 10SM BKN045 OVC050 06/05 A2968 RMK AO2 RAB05E32 SLP051 P0000 T00610050 TSNO
PASO 191253Z AUTO 00000KT 10SM BKN044 BKN060 06/04 A2969 RMK AO2 RAE32 SLP052 P0001 T00610044 TSNO
PASO 191153Z AUTO 00000KT 10SM -RA OVC048 08/04 A2969 RMK AO2 SLP055 P0001 60003 70005 T00780044 10083 20061 56014 TSNO
PASO 191053Z AUTO 21003KT 10SM -RA OVC047 06/05 A2971 RMK AO2 RAB0959 SLP060 P0002 T00610050 TSNO
PASO 190953Z AUTO 00000KT 10SM BKN048 OVC080 06/04 A2972 RMK AO2 RAB0854E02B39E52 SLP063 P0000 T00610044 TSNO
PASO 190853Z AUTO 00000KT 10SM BKN060 OVC090 06/05 A2974 RMK AO2 RAB37E51 SLP069 P0000 60000 T00610050 401110022 58016 TSNO
PASO 190753Z AUTO 00000KT 10SM SCT060 BKN075 BKN100 06/05 A2975 RMK AO2 RAB15E37 SLP076 P0000 T00610050 TSNO
PASO 190653Z AUTO 00000KT 10SM SCT039 BKN050 OVC080 07/05 A2977 RMK AO2 RAE49 SLP080 P0000 T00670050 TSNO
PASO 190553Z AUTO 00000KT 10SM -RA BKN041 OVC060 07/05 A2978 RMK AO2 SLP086 P0001 60001 T00720050 10111 20072 58005 TSNO
PASO 190453Z AUTO 00000KT 10SM -RA BKN055 BKN070 OVC095 08/03 A2979 RMK AO2 RAB48 SLP088 P0000 T00830033 TSNO
PASO 190353Z AUTO 03004KT 10SM BKN060 08/04 A2979 RMK AO2 SLP089 T00830039 TSNO
PASO 190253Z AUTO 00000KT 10SM SCT055 SCT070 10/04 A2980 RMK AO2 RAE0156 SLP091 P0000 60000 T01000039 58001 TSNO
PASO 190153Z AUTO 00000KT 10SM -RA FEW039 BKN060 OVC080 10/04 A2980 RMK AO2 RAB46 SLP092 P0000 T01000039 TSNO
PASO 190053Z AUTO 00000KT 10SM SCT047 BKN065 OVC090 09/04 A2981 RMK AO2 RAB2354E09 SLP093 P0000 T00890044 TSNO
PASO 182353Z AUTO VRB03KT 10SM BKN033 OVC039 09/04 A2980 RMK AO2 RAE2257 SLP092 P0000 60001 T00890044 10100 20072 51004 TSNO
PASO 182253Z AUTO 34004KT 10SM -RA FEW021 BKN041 OVC070 09/05 A2980 RMK AO2 SLP090 P0001 T00890050 TSNO
PASO 182153Z AUTO 00000KT 10SM -RA OVC040 08/04 A2980 RMK AO2 RAB52 SLP091 P0000 T00830039 TSNO
PASO 182053Z AUTO 35003KT 10SM SCT047 OVC060 09/03 A2979 RMK AO2 SLP088 T00940033 53003 TSNO
PASO 181953Z AUTO 01005KT 10SM FEW042 BKN050 OVC060 09/04 A2978 RMK AO2 SLP085 T00940039 TSNO
PASO 181853Z AUTO 02004KT 10SM CLR 10/06 A2978 RMK AO2 SLP085 T01000056 TSNO
PASO 181753Z AUTO 34003KT 10SM CLR 07/04 A2978 RMK AO2 SLP084 T00720044 10072 20022 53002 TSNO
PASO 181653Z AUTO 00000KT 10SM CLR 06/04 A2977 RMK AO2 SLP082 T00610044 TSNO
PASO 181553Z AUTO 00000KT 10SM CLR 04/03 A2978 RMK AO2 SLP083 T00390028 TSNO
PASO 181453Z AUTO 00000KT 10SM CLR 03/01 A2977 RMK AO2 SLP082 T00280011 50002 TSNO
PASO 181353Z AUTO 00000KT 10SM CLR 03/01 A2977 RMK AO2 SLP082 T00280011 TSNO
PASO 181253Z AUTO 00000KT 10SM CLR 03/02 A2977 RMK AO2 SLP080 T00330017 TSNO
PASO 181153Z AUTO 00000KT 10SM OVC050 04/03 A2977 RMK AO2 SLP079 70023 T00440028 10067 20044 51003 TSNO
PASO 181053Z AUTO 19003KT 10SM OVC050 05/04 A2976 RMK AO2 SLP078 T00500039 TSNO
PASO 180953Z AUTO 00000KT 10SM OVC050 06/04 A2976 RMK AO2 SLP078 T00560039 TSNO
PASO 180853Z AUTO 00000KT 10SM FEW026 OVC055 05/03 A2976 RMK AO2 SLP076 T00500033 400940044 51010 TSNO